Terminal Aerodrome Forecast
Issued by NWS Cleveland, OH

Home | Current Version | Previous Version | Text Only | Print | Product List | Glossary Off
Versions: 1 2 3 4 5 6 7 8 9 10 11 12 13 14

000
FTUS41 KCLE 162327
TAFYNG
TAF
KYNG 162327Z 1700/1724 29006KT P6SM BKN025 OVC200
     FM170100 VRB04KT P6SM SCT100 BKN200
     FM170800 14004KT P6SM BKN100
     FM171600 18006KT P6SM BKN200=

USA.gov is the U.S. government's official web portal to all federal, state and local government web resources and services.